createdAt,value
2022-12-06T00:00:46.924Z,5.77
2022-12-06T00:03:13.867Z,5.66
2022-12-06T00:05:44.718Z,5.84
2022-12-06T00:08:12.788Z,5.71
2022-12-06T00:10:39.261Z,5.62
2022-12-06T00:13:05.750Z,5.44
2022-12-06T00:15:36.451Z,5.86
2022-12-06T00:18:03.656Z,5.87
2022-12-06T00:20:30.068Z,5.99
2022-12-06T00:22:56.649Z,5.54
2022-12-06T00:25:23.037Z,5.38
2022-12-06T00:27:50.729Z,6.01
2022-12-06T00:30:17.478Z,5.92
2022-12-06T00:32:43.888Z,5.96
2022-12-06T00:35:10.317Z,6.09
2022-12-06T00:37:37.289Z,5.83
2022-12-06T00:40:03.959Z,6.20
2022-12-06T00:42:30.375Z,6.10
2022-12-06T00:44:56.829Z,6.15
2022-12-06T00:47:23.285Z,5.77
2022-12-06T00:49:49.780Z,6.22
2022-12-06T00:52:16.176Z,6.19
2022-12-06T00:54:42.684Z,5.75
2022-12-06T00:57:09.301Z,6.01
2022-12-06T00:59:35.674Z,6.11
2022-12-06T01:02:02.112Z,6.02
2022-12-06T01:04:28.723Z,5.50
2022-12-06T01:06:55.107Z,5.84
2022-12-06T01:09:21.572Z,5.84
2022-12-06T01:11:47.972Z,5.73
2022-12-06T01:14:14.407Z,6.05
2022-12-06T01:16:40.939Z,5.89
2022-12-06T01:19:07.472Z,5.56
2022-12-06T01:21:34.206Z,6.02
2022-12-06T01:24:00.648Z,5.99
2022-12-06T01:26:31.048Z,6.22
2022-12-06T01:28:58.987Z,5.95
2022-12-06T01:31:25.687Z,5.77
2022-12-06T01:33:52.293Z,6.31
2022-12-06T01:36:25.972Z,5.99
2022-12-06T01:38:58.293Z,5.98
2022-12-06T01:41:26.518Z,6.13
2022-12-06T01:43:53.848Z,6.15
2022-12-06T01:46:41.532Z,6.54
2022-12-06T01:49:19.314Z,6.56
2022-12-06T01:52:01.496Z,6.08
2022-12-06T01:54:29.591Z,6.11
2022-12-06T01:56:57.802Z,6.28
2022-12-06T01:59:25.781Z,6.56
2022-12-06T02:01:53.297Z,6.33
2022-12-06T02:04:20.393Z,6.07
2022-12-06T02:06:47.766Z,6.25
2022-12-06T02:09:16.487Z,6.69
2022-12-06T02:11:43.620Z,6.62
2022-12-06T02:14:15.316Z,6.10
2022-12-06T02:16:59.713Z,6.71
2022-12-06T02:19:32.230Z,6.72
2022-12-06T02:22:16.136Z,6.59
2022-12-06T02:25:10.528Z,6.74
2022-12-06T02:27:45.301Z,6.10
2022-12-06T02:30:18.484Z,6.77
2022-12-06T02:32:54.657Z,6.53
2022-12-06T02:35:43.335Z,6.71
2022-12-06T02:38:19.865Z,6.67
2022-12-06T02:40:55.008Z,6.79
2022-12-06T02:43:26.100Z,6.83
2022-12-06T02:45:56.925Z,6.23
2022-12-06T02:48:25.719Z,6.71
2022-12-06T02:50:59.414Z,6.83
2022-12-06T02:53:29.076Z,6.34
2022-12-06T02:55:57.099Z,6.30
2022-12-06T02:58:23.598Z,6.42
2022-12-06T03:00:59.762Z,6.39
2022-12-06T03:03:53.816Z,6.94
2022-12-06T03:06:45.746Z,7.00
2022-12-06T03:09:29.489Z,6.81
2022-12-06T03:12:06.677Z,6.88
2022-12-06T03:14:40.798Z,6.51
2022-12-06T03:17:07.015Z,7.04
2022-12-06T03:19:36.306Z,7.06
2022-12-06T03:22:08.814Z,6.99
2022-12-06T03:24:38.387Z,6.97
2022-12-06T03:27:09.849Z,7.00
2022-12-06T03:29:40.689Z,7.00
2022-12-06T03:32:10.425Z,6.47
2022-12-06T03:34:41.397Z,7.08
2022-12-06T03:37:12.038Z,6.90
2022-12-06T03:40:01.513Z,7.17
2022-12-06T03:42:29.112Z,7.18
2022-12-06T03:44:55.470Z,7.06
2022-12-06T03:47:40.062Z,7.04
2022-12-06T03:50:16.676Z,7.11
2022-12-06T03:52:43.272Z,6.62
2022-12-06T03:55:09.910Z,7.10
2022-12-06T03:57:36.371Z,6.77
2022-12-06T04:00:04.171Z,7.04
2022-12-06T04:02:30.587Z,7.03
2022-12-06T04:04:57.940Z,7.22
2022-12-06T04:07:24.262Z,6.90
2022-12-06T04:09:56.181Z,7.15
2022-12-06T04:12:42.628Z,7.29
2022-12-06T04:15:10.180Z,7.12
2022-12-06T04:17:58.827Z,7.22
2022-12-06T04:20:27.270Z,6.72
2022-12-06T04:23:06.175Z,6.66
2022-12-06T04:25:34.796Z,7.33
2022-12-06T04:28:21.764Z,6.84
2022-12-06T04:31:07.144Z,7.29
2022-12-06T04:33:52.213Z,7.05
2022-12-06T04:36:36.989Z,7.28
2022-12-06T04:39:03.894Z,7.27
2022-12-06T04:42:05.330Z,7.33
2022-12-06T04:44:31.721Z,7.34
2022-12-06T04:46:58.136Z,7.12
2022-12-06T04:49:26.323Z,6.85
2022-12-06T04:51:54.126Z,7.30
2022-12-06T04:54:22.064Z,6.92
2022-12-06T04:56:48.974Z,7.55
2022-12-06T04:59:15.439Z,7.36
2022-12-06T05:01:41.851Z,6.89
2022-12-06T05:04:10.070Z,7.55
2022-12-06T05:06:36.665Z,7.66
2022-12-06T05:09:03.893Z,6.96
2022-12-06T05:11:30.415Z,7.44
2022-12-06T05:13:56.770Z,7.45
2022-12-06T05:16:23.246Z,7.33
2022-12-06T05:18:49.691Z,7.48
2022-12-06T05:21:19.284Z,7.33
2022-12-06T05:23:46.017Z,7.13
2022-12-06T05:26:18.041Z,7.15
2022-12-06T05:28:45.773Z,7.67
2022-12-06T05:31:13.192Z,7.61
2022-12-06T05:33:39.761Z,7.57
2022-12-06T05:36:13.013Z,7.67
2022-12-06T05:38:39.616Z,7.53
2022-12-06T05:41:06.775Z,7.19
2022-12-06T05:43:33.356Z,7.77
2022-12-06T05:45:59.900Z,7.15
2022-12-06T05:48:26.572Z,7.24
2022-12-06T05:50:53.663Z,7.74
2022-12-06T05:53:20.990Z,7.65
2022-12-06T05:55:47.578Z,7.73
2022-12-06T05:58:14.655Z,7.74
2022-12-06T06:00:41.099Z,7.86
2022-12-06T06:03:07.671Z,7.69
2022-12-06T06:05:36.341Z,7.83
2022-12-06T06:08:02.706Z,7.69
2022-12-06T06:10:29.081Z,7.79
2022-12-06T06:12:55.521Z,7.31
2022-12-06T06:15:21.865Z,7.82
2022-12-06T06:17:48.245Z,7.40
2022-12-06T06:20:14.681Z,7.91
2022-12-06T06:22:42.365Z,7.81
2022-12-06T06:25:09.640Z,7.98
2022-12-06T06:27:37.691Z,7.79
2022-12-06T06:30:10.221Z,7.44
2022-12-06T06:32:37.454Z,7.95
2022-12-06T06:35:05.190Z,8.07
2022-12-06T06:37:33.006Z,7.31
2022-12-06T06:40:00.520Z,7.76
2022-12-06T06:42:27.357Z,8.07
2022-12-06T06:44:54.600Z,7.92
2022-12-06T06:47:22.400Z,7.93
2022-12-06T06:49:49.052Z,7.75
2022-12-06T06:52:15.728Z,7.81
2022-12-06T06:54:42.060Z,7.60
2022-12-06T06:57:12.854Z,7.72
2022-12-06T06:59:43.039Z,7.82
2022-12-06T07:02:13.322Z,7.61
2022-12-06T07:04:39.929Z,7.94
2022-12-06T07:07:06.512Z,7.70
2022-12-06T07:09:33.871Z,8.00
2022-12-06T07:12:00.534Z,7.78
2022-12-06T07:14:26.955Z,7.60
2022-12-06T07:16:53.400Z,7.90
2022-12-06T07:19:19.790Z,7.69
2022-12-06T07:21:46.205Z,7.35
2022-12-06T07:24:12.782Z,7.31
2022-12-06T07:26:39.129Z,8.15
2022-12-06T07:29:05.500Z,8.20
2022-12-06T07:31:33.623Z,8.16
2022-12-06T07:34:01.425Z,7.63
2022-12-06T07:36:30.639Z,7.71
2022-12-06T07:38:58.645Z,7.31
2022-12-06T07:41:46.193Z,7.72
2022-12-06T07:44:34.036Z,8.20
2022-12-06T07:47:00.709Z,8.07
2022-12-06T07:49:27.155Z,8.22
2022-12-06T07:51:54.865Z,8.25
2022-12-06T07:54:21.609Z,8.12
2022-12-06T07:56:47.941Z,7.71
2022-12-06T07:59:14.498Z,8.21
2022-12-06T08:01:41.290Z,8.35
2022-12-06T08:04:08.085Z,7.99
2022-12-06T08:06:35.365Z,8.25
2022-12-06T08:09:01.982Z,8.19
2022-12-06T08:11:28.721Z,8.31
2022-12-06T08:13:55.077Z,7.83
2022-12-06T08:16:21.467Z,8.24
2022-12-06T08:18:47.871Z,8.25
2022-12-06T08:21:14.295Z,8.24
2022-12-06T08:23:40.690Z,8.37
2022-12-06T08:26:09.965Z,8.50
2022-12-06T08:28:37.579Z,8.17
2022-12-06T08:31:09.442Z,8.48
2022-12-06T08:33:36.631Z,8.47
2022-12-06T08:36:08.861Z,8.27
2022-12-06T08:38:37.114Z,7.89
2022-12-06T08:41:04.866Z,8.44
2022-12-06T08:43:31.701Z,8.65
2022-12-06T08:45:58.281Z,7.98
2022-12-06T08:48:24.658Z,8.41
2022-12-06T08:50:51.035Z,8.57
2022-12-06T08:53:17.585Z,8.68
2022-12-06T08:55:58.741Z,8.01
2022-12-06T08:58:29.145Z,8.34
2022-12-06T09:00:55.506Z,8.66
2022-12-06T09:03:21.943Z,8.49
2022-12-06T09:05:48.321Z,8.37
2022-12-06T09:08:14.966Z,8.38
2022-12-06T09:10:43.029Z,8.63
2022-12-06T09:13:09.441Z,8.60
2022-12-06T09:15:37.425Z,8.33
2022-12-06T09:18:03.969Z,8.40
2022-12-06T09:20:30.377Z,8.25
2022-12-06T09:22:57.771Z,8.40
2022-12-06T09:25:24.175Z,8.45
2022-12-06T09:27:50.549Z,8.25
2022-12-06T09:30:17.485Z,8.47
2022-12-06T09:32:43.951Z,8.25
2022-12-06T09:35:15.117Z,8.76
2022-12-06T09:37:42.771Z,8.82
2022-12-06T09:40:21.294Z,8.64
2022-12-06T09:42:53.560Z,9.02
2022-12-06T09:45:50.466Z,8.87
2022-12-06T09:48:48.751Z,8.90
2022-12-06T09:51:33.990Z,9.14
2022-12-06T09:54:33.623Z,9.09
2022-12-06T09:57:12.075Z,9.08
2022-12-06T09:59:57.490Z,9.20
2022-12-06T10:02:36.397Z,8.81
2022-12-06T10:05:12.028Z,9.13
2022-12-06T10:08:08.664Z,9.24
2022-12-06T10:10:53.780Z,9.20
2022-12-06T10:13:43.626Z,8.66
2022-12-06T10:16:39.396Z,9.29
2022-12-06T10:19:35.260Z,9.21
2022-12-06T10:22:07.676Z,9.31
2022-12-06T10:24:37.183Z,9.04
2022-12-06T10:27:20.072Z,9.20
2022-12-06T10:30:01.779Z,9.15
2022-12-06T10:32:40.321Z,9.39
2022-12-06T10:35:35.590Z,8.97
2022-12-06T10:38:08.085Z,9.22
2022-12-06T10:40:49.702Z,9.20
2022-12-06T10:43:23.459Z,9.36
2022-12-06T10:46:24.042Z,9.27
2022-12-06T10:49:00.906Z,9.19
2022-12-06T10:51:43.496Z,9.60
2022-12-06T10:54:28.065Z,9.54
2022-12-06T10:56:55.831Z,9.67
2022-12-06T10:59:32.624Z,9.33
2022-12-06T11:02:04.750Z,9.64
2022-12-06T11:04:36.677Z,9.56
2022-12-06T11:07:13.772Z,9.41
2022-12-06T11:09:45.977Z,9.66
2022-12-06T11:12:31.493Z,9.28
2022-12-06T11:15:18.152Z,8.98
2022-12-06T11:18:04.382Z,9.67
2022-12-06T11:20:39.758Z,9.69
2022-12-06T11:23:24.875Z,9.71
2022-12-06T11:26:44.508Z,9.74
2022-12-06T11:29:13.131Z,9.12
2022-12-06T11:31:52.808Z,9.56
2022-12-06T11:34:36.266Z,9.54
2022-12-06T11:37:04.143Z,9.08
2022-12-06T11:39:32.475Z,9.58
2022-12-06T11:42:03.057Z,9.08
2022-12-06T11:44:38.719Z,9.60
2022-12-06T11:47:06.722Z,9.02
2022-12-06T11:49:42.379Z,8.90
2022-12-06T11:52:33.897Z,9.22
2022-12-06T11:55:05.577Z,9.40
2022-12-06T11:57:55.342Z,9.00
2022-12-06T12:00:24.404Z,9.61
2022-12-06T12:02:54.380Z,9.64
2022-12-06T12:05:24.520Z,9.56
2022-12-06T12:08:17.717Z,9.84
2022-12-06T12:10:46.251Z,9.85
2022-12-06T12:13:51.123Z,9.85
2022-12-06T12:16:22.983Z,9.58
2022-12-06T12:19:19.323Z,9.27
2022-12-06T12:21:49.626Z,9.30
2022-12-06T12:25:18.482Z,9.56
2022-12-06T12:27:40.307Z,9.71
2022-12-06T12:30:35.171Z,9.64
2022-12-06T12:33:07.563Z,9.67
2022-12-06T12:35:35.480Z,9.42
2022-12-06T12:38:18.286Z,9.54
2022-12-06T12:40:52.095Z,9.27
2022-12-06T12:43:29.479Z,9.15
2022-12-06T12:46:05.234Z,9.67
2022-12-06T12:48:32.123Z,9.81
2022-12-06T12:51:01.523Z,9.76
2022-12-06T12:53:32.156Z,9.79
2022-12-06T12:56:20.610Z,9.82
2022-12-06T12:58:49.291Z,9.82
2022-12-06T13:01:24.891Z,9.94
2022-12-06T13:03:57.220Z,9.34
2022-12-06T13:06:45.289Z,9.82
2022-12-06T13:09:19.963Z,10.02
2022-12-06T13:11:53.253Z,9.80
2022-12-06T13:14:22.331Z,10.00
2022-12-06T13:16:53.304Z,9.91
2022-12-06T13:19:24.148Z,9.76
2022-12-06T13:21:51.881Z,9.93
2022-12-06T13:24:24.435Z,9.23
2022-12-06T13:26:58.716Z,9.54
2022-12-06T13:29:28.047Z,9.52
2022-12-06T13:31:58.158Z,8.80
2022-12-06T13:34:24.406Z,9.41
2022-12-06T13:36:53.646Z,8.92
2022-12-06T13:39:32.301Z,9.32
2022-12-06T13:42:18.927Z,8.99
2022-12-06T13:44:48.204Z,9.52
2022-12-06T13:47:26.669Z,9.69
2022-12-06T13:50:22.024Z,9.88
2022-12-06T13:52:48.273Z,9.97
2022-12-06T13:55:23.872Z,9.87
2022-12-06T13:57:51.224Z,9.52
2022-12-06T14:00:29.734Z,9.81
2022-12-06T14:03:03.412Z,9.83
2022-12-06T14:08:29.960Z,9.57
2022-12-06T14:11:15.223Z,9.66
2022-12-06T14:13:43.627Z,9.57
2022-12-06T14:16:22.824Z,9.51
2022-12-06T14:18:50.270Z,8.92
2022-12-06T14:21:30.768Z,9.66
2022-12-06T14:23:57.592Z,9.70
2022-12-06T14:26:27.745Z,9.43
2022-12-06T14:28:57.113Z,9.31
2022-12-06T14:31:30.370Z,9.33
2022-12-06T14:33:57.137Z,9.55
2022-12-06T14:36:30.372Z,9.12
2022-12-06T14:39:01.367Z,9.13
2022-12-06T14:41:53.031Z,9.51
2022-12-06T14:44:20.943Z,9.50
2022-12-06T14:46:49.335Z,9.20
2022-12-06T14:49:37.931Z,8.94
2022-12-06T14:52:18.178Z,9.23
2022-12-06T14:54:45.840Z,9.03
2022-12-06T14:57:24.133Z,9.16
2022-12-06T15:00:15.154Z,9.11
2022-12-06T15:03:11.333Z,9.02
2022-12-06T15:05:44.193Z,8.94
2022-12-06T15:08:25.885Z,9.34
2022-12-06T15:10:58.289Z,9.06
2022-12-06T15:13:25.022Z,9.08
2022-12-06T15:16:08.022Z,9.22
2022-12-06T15:18:43.321Z,8.90
2022-12-06T15:21:14.175Z,8.95
2022-12-06T15:23:48.302Z,8.81
2022-12-06T15:26:14.677Z,9.02
2022-12-06T15:28:41.621Z,8.90
2022-12-06T15:31:19.101Z,8.95
2022-12-06T15:33:46.366Z,8.95
2022-12-06T15:36:18.277Z,9.04
2022-12-06T15:38:45.102Z,8.45
2022-12-06T15:41:26.112Z,9.02
2022-12-06T15:43:53.637Z,9.07
2022-12-06T15:46:28.548Z,8.99
2022-12-06T15:48:55.802Z,8.70
2022-12-06T15:51:27.672Z,8.77
2022-12-06T15:53:55.918Z,8.74
2022-12-06T15:56:25.542Z,8.22
2022-12-06T15:58:51.938Z,8.66
2022-12-06T16:01:33.083Z,8.82
2022-12-06T16:03:59.652Z,8.08
2022-12-06T16:06:27.646Z,8.11
2022-12-06T16:08:54.247Z,8.47
2022-12-06T16:11:23.803Z,8.79
2022-12-06T16:13:50.822Z,8.71
2022-12-06T16:16:22.105Z,7.85
2022-12-06T16:18:49.614Z,8.31
2022-12-06T16:21:34.752Z,8.71
2022-12-06T16:24:17.997Z,8.02
2022-12-06T16:26:45.679Z,8.52
2022-12-06T16:29:19.070Z,8.71
2022-12-06T16:31:45.636Z,8.05
2022-12-06T16:34:12.470Z,7.41
2022-12-06T16:36:58.673Z,8.51
2022-12-06T16:39:26.277Z,8.42
2022-12-06T16:41:52.978Z,8.31
2022-12-06T16:44:19.487Z,8.30
2022-12-06T16:46:46.445Z,7.86
2022-12-06T16:52:08.072Z,7.59
2022-12-06T16:54:34.556Z,7.79
2022-12-06T16:57:03.455Z,8.34
2022-12-06T16:59:32.400Z,7.82
2022-12-06T17:01:59.369Z,8.14
2022-12-06T17:04:26.653Z,8.30
2022-12-06T17:06:53.137Z,8.46
2022-12-06T17:09:19.686Z,8.33
2022-12-06T17:12:06.035Z,8.45
2022-12-06T17:14:34.221Z,8.34
2022-12-06T17:17:03.940Z,8.48
2022-12-06T17:19:33.126Z,8.03
2022-12-06T17:22:02.163Z,8.37
2022-12-06T17:24:28.823Z,8.55
2022-12-06T17:26:55.767Z,7.78
2022-12-06T17:29:23.429Z,7.91
2022-12-06T17:31:49.854Z,8.61
2022-12-06T17:34:16.651Z,8.45
2022-12-06T17:36:43.034Z,8.53
2022-12-06T17:39:10.491Z,8.46
2022-12-06T17:41:55.626Z,8.35
2022-12-06T17:44:22.079Z,8.57
2022-12-06T17:46:48.462Z,7.88
2022-12-06T17:49:18.256Z,8.06
2022-12-06T17:51:45.166Z,7.91
2022-12-06T17:54:12.186Z,8.44
2022-12-06T17:56:41.329Z,8.65
2022-12-06T17:59:13.973Z,8.61
2022-12-06T18:02:06.613Z,8.07
2022-12-06T18:04:31.392Z,8.07
2022-12-06T18:06:58.477Z,8.37
2022-12-06T18:09:25.093Z,8.38
2022-12-06T18:11:51.472Z,8.45
2022-12-06T18:14:18.835Z,8.39
2022-12-06T18:16:46.004Z,8.62
2022-12-06T18:19:16.222Z,8.48
2022-12-06T18:21:43.192Z,7.84
2022-12-06T18:24:21.527Z,8.44
2022-12-06T18:26:49.539Z,8.26
2022-12-06T18:29:22.662Z,8.15
2022-12-06T18:31:50.249Z,8.67
2022-12-06T18:34:17.365Z,8.49
2022-12-06T18:36:44.079Z,7.74
2022-12-06T18:39:15.310Z,8.55
2022-12-06T18:41:42.953Z,8.61
2022-12-06T18:44:10.449Z,8.38
2022-12-06T18:46:38.593Z,7.92
2022-12-06T18:49:05.085Z,8.00
2022-12-06T18:51:34.424Z,8.37
2022-12-06T18:54:02.993Z,8.43
2022-12-06T18:56:30.241Z,8.44
2022-12-06T18:59:02.036Z,8.45
2022-12-06T19:01:31.000Z,8.13
2022-12-06T19:04:03.068Z,8.44
2022-12-06T19:06:33.064Z,8.25
2022-12-06T19:09:06.515Z,8.42
2022-12-06T19:11:36.582Z,8.40
2022-12-06T19:14:03.337Z,8.46
2022-12-06T19:16:34.365Z,8.42
2022-12-06T19:19:03.423Z,8.06
2022-12-06T19:21:32.849Z,7.78
2022-12-06T19:23:59.289Z,8.26
2022-12-06T19:26:26.653Z,7.46
2022-12-06T19:28:53.428Z,8.44
2022-12-06T19:31:22.828Z,8.45
2022-12-06T19:33:50.546Z,8.25
2022-12-06T19:36:28.748Z,8.31
2022-12-06T19:39:06.125Z,8.43
2022-12-06T19:41:53.204Z,8.54
2022-12-06T19:44:19.570Z,8.60
2022-12-06T19:46:46.491Z,7.64
2022-12-06T19:49:14.181Z,8.36
2022-12-06T19:51:42.889Z,8.60
2022-12-06T19:54:11.603Z,8.44
2022-12-06T19:56:39.240Z,8.52
2022-12-06T19:59:11.557Z,8.40
2022-12-06T20:01:40.264Z,8.26
2022-12-06T20:04:06.894Z,8.30
2022-12-06T20:06:34.934Z,8.38
2022-12-06T20:09:01.575Z,8.29
2022-12-06T20:11:47.096Z,8.40
2022-12-06T20:14:17.268Z,8.46
2022-12-06T20:16:44.642Z,8.48
2022-12-06T20:19:27.820Z,8.57
2022-12-06T20:21:54.253Z,8.34
2022-12-06T20:24:21.866Z,8.70
2022-12-06T20:26:50.143Z,8.55
2022-12-06T20:29:18.306Z,8.65
2022-12-06T20:31:45.591Z,8.65
2022-12-06T20:34:15.393Z,8.73
2022-12-06T20:36:42.810Z,8.56
2022-12-06T20:39:19.394Z,8.09
2022-12-06T20:41:45.746Z,8.17
2022-12-06T20:44:12.270Z,8.32
2022-12-06T20:46:38.750Z,8.32
2022-12-06T20:49:05.640Z,8.01
2022-12-06T20:51:33.231Z,8.43
2022-12-06T20:54:02.167Z,8.72
2022-12-06T20:56:35.377Z,7.90
2022-12-06T20:59:03.407Z,8.67
2022-12-06T21:01:36.362Z,8.24
2022-12-06T21:04:03.243Z,8.49
2022-12-06T21:06:29.610Z,8.34
2022-12-06T21:08:56.031Z,8.48
2022-12-06T21:11:24.523Z,8.63
2022-12-06T21:13:53.414Z,8.40
2022-12-06T21:16:26.283Z,8.66
2022-12-06T21:18:58.748Z,8.59
2022-12-06T21:21:32.210Z,8.51
2022-12-06T21:24:00.138Z,8.86
2022-12-06T21:26:27.131Z,8.57
2022-12-06T21:28:54.449Z,8.51
2022-12-06T21:31:21.255Z,8.49
2022-12-06T21:33:47.601Z,8.68
2022-12-06T21:36:13.953Z,8.34
2022-12-06T21:38:40.311Z,8.63
2022-12-06T21:41:15.119Z,8.49
2022-12-06T21:43:41.426Z,8.06
2022-12-06T21:46:12.073Z,8.80
2022-12-06T21:48:38.591Z,8.61
2022-12-06T21:51:08.042Z,8.21
2022-12-06T21:53:34.770Z,8.10
2022-12-06T21:56:07.299Z,8.81
2022-12-06T21:58:35.070Z,8.26
2022-12-06T22:01:06.179Z,8.51
2022-12-06T22:03:33.063Z,8.71
2022-12-06T22:06:03.934Z,8.36
2022-12-06T22:08:30.306Z,8.47
2022-12-06T22:10:57.305Z,8.60
2022-12-06T22:13:23.614Z,8.51
2022-12-06T22:15:50.045Z,8.59
2022-12-06T22:18:16.468Z,8.31
2022-12-06T22:20:42.845Z,8.41
2022-12-06T22:23:09.153Z,8.49
2022-12-06T22:25:39.198Z,8.45
2022-12-06T22:28:05.643Z,8.30
2022-12-06T22:30:31.981Z,8.07
2022-12-06T22:32:58.283Z,7.99
2022-12-06T22:35:24.624Z,8.01
2022-12-06T22:37:50.936Z,7.99
2022-12-06T22:40:17.246Z,8.22
2022-12-06T22:42:43.567Z,8.39
2022-12-06T22:45:10.373Z,8.45
2022-12-06T22:47:36.705Z,8.48
2022-12-06T22:50:03.647Z,8.54
2022-12-06T22:52:30.409Z,8.74
2022-12-06T22:54:56.778Z,8.49
2022-12-06T22:57:23.399Z,8.12
2022-12-06T22:59:49.754Z,8.60
2022-12-06T23:02:16.181Z,8.37
2022-12-06T23:04:42.586Z,8.47
2022-12-06T23:07:09.576Z,8.71
2022-12-06T23:09:36.026Z,8.18
2022-12-06T23:12:02.445Z,8.57
2022-12-06T23:14:28.880Z,7.90
2022-12-06T23:16:55.272Z,7.99
2022-12-06T23:19:21.626Z,7.71
2022-12-06T23:21:48.143Z,8.56
2022-12-06T23:24:14.824Z,8.26
2022-12-06T23:26:53.135Z,8.27
2022-12-06T23:29:21.075Z,8.23
2022-12-06T23:31:47.577Z,8.27
2022-12-06T23:34:21.952Z,8.51
2022-12-06T23:36:49.335Z,8.37
2022-12-06T23:39:15.730Z,8.19
2022-12-06T23:41:42.404Z,7.67
2022-12-06T23:44:11.434Z,7.64
2022-12-06T23:46:39.720Z,8.52
2022-12-06T23:49:06.918Z,8.05
2022-12-06T23:51:38.235Z,8.28
2022-12-06T23:54:07.252Z,8.32
2022-12-06T23:56:36.685Z,7.90
2022-12-06T23:59:04.698Z,8.07
